createdAt,value
2017-10-15T00:01:22.581Z,73.40
2017-10-15T00:03:50.878Z,72.80
2017-10-15T00:06:19.164Z,73.40
2017-10-15T00:08:47.458Z,75.00
2017-10-15T00:11:16.020Z,76.30
2017-10-15T00:13:44.285Z,78.40
2017-10-15T00:16:12.537Z,79.10
2017-10-15T00:18:40.794Z,78.40
2017-10-15T00:21:09.040Z,78.20
2017-10-15T00:23:37.752Z,77.50
2017-10-15T00:26:06.016Z,77.50
2017-10-15T00:28:34.712Z,76.80
2017-10-15T00:31:03.037Z,76.80
2017-10-15T00:33:31.290Z,76.80
2017-10-15T00:35:59.530Z,76.60
2017-10-15T00:38:27.809Z,76.10
2017-10-15T00:40:56.093Z,75.90
2017-10-15T00:43:24.355Z,75.90
2017-10-15T00:45:53.005Z,75.00
2017-10-15T00:48:21.268Z,75.00
2017-10-15T00:50:49.569Z,74.50
2017-10-15T00:53:17.959Z,74.60
2017-10-15T00:55:46.233Z,74.80
2017-10-15T00:58:14.892Z,75.90
2017-10-15T01:00:43.189Z,75.90
2017-10-15T01:03:11.420Z,75.90
2017-10-15T01:05:39.694Z,75.90
2017-10-15T01:08:07.975Z,76.40
2017-10-15T01:10:36.230Z,76.30
2017-10-15T01:13:04.498Z,76.30
2017-10-15T01:15:33.546Z,76.10
2017-10-15T01:18:02.141Z,76.30
2017-10-15T01:20:30.397Z,76.80
2017-10-15T01:22:58.691Z,76.80
2017-10-15T01:25:26.960Z,76.80
2017-10-15T01:27:55.221Z,76.60
2017-10-15T01:30:23.488Z,76.60
2017-10-15T01:32:51.749Z,76.80
2017-10-15T01:35:20.016Z,77.00
2017-10-15T01:37:48.326Z,76.80
2017-10-15T01:40:16.577Z,76.30
2017-10-15T01:42:46.801Z,76.30
2017-10-15T01:45:15.541Z,76.30
2017-10-15T01:47:43.829Z,76.60
2017-10-15T01:50:12.099Z,76.60
2017-10-15T01:52:41.295Z,76.60
2017-10-15T01:55:09.952Z,76.80
2017-10-15T01:57:38.512Z,76.80
2017-10-15T02:00:06.784Z,77.10
2017-10-15T02:02:35.052Z,77.00
2017-10-15T02:05:03.587Z,76.80
2017-10-15T02:07:32.368Z,76.60
2017-10-15T02:10:00.624Z,76.60
2017-10-15T02:12:28.887Z,76.40
2017-10-15T02:14:57.164Z,76.60
2017-10-15T02:17:25.418Z,76.40
2017-10-15T02:19:53.688Z,77.00
2017-10-15T02:22:21.983Z,77.00
2017-10-15T02:24:51.183Z,77.00
2017-10-15T02:27:19.429Z,77.10
2017-10-15T02:29:47.691Z,77.10
2017-10-15T02:32:15.946Z,77.30
2017-10-15T02:34:44.440Z,77.10
2017-10-15T02:37:12.815Z,77.10
2017-10-15T02:39:41.490Z,77.90
2017-10-15T02:42:09.740Z,77.90
2017-10-15T02:44:38.025Z,77.70
2017-10-15T02:47:06.293Z,77.70
2017-10-15T02:49:34.553Z,77.50
2017-10-15T02:52:03.112Z,77.10
2017-10-15T02:54:31.371Z,77.00
2017-10-15T02:56:59.626Z,77.00
2017-10-15T02:59:27.950Z,76.80
2017-10-15T03:01:56.211Z,77.30
2017-10-15T03:04:24.941Z,77.50
2017-10-15T03:06:53.214Z,77.30
2017-10-15T03:09:21.516Z,77.10
2017-10-15T03:11:49.797Z,77.00
2017-10-15T03:14:18.097Z,77.30
2017-10-15T03:16:46.761Z,77.50
2017-10-15T03:19:15.024Z,77.50
2017-10-15T03:21:43.339Z,77.30
2017-10-15T03:24:11.991Z,77.50
2017-10-15T03:26:40.257Z,77.50
2017-10-15T03:29:08.649Z,77.30
2017-10-15T03:31:36.932Z,77.10
2017-10-15T03:34:05.209Z,76.80
2017-10-15T03:36:33.527Z,76.30
2017-10-15T03:39:01.833Z,76.60
2017-10-15T03:41:30.081Z,75.90
2017-10-15T03:43:58.387Z,75.70
2017-10-15T03:46:26.652Z,75.50
2017-10-15T03:48:54.930Z,75.00
2017-10-15T03:51:23.304Z,74.60
2017-10-15T03:53:51.599Z,74.50
2017-10-15T03:56:19.892Z,74.30
2017-10-15T03:58:48.152Z,73.70
2017-10-15T04:01:16.421Z,74.30
2017-10-15T04:03:44.700Z,73.70
2017-10-15T04:06:12.959Z,73.40
2017-10-15T04:08:41.253Z,72.80
2017-10-15T04:11:09.519Z,71.90
2017-10-15T04:13:37.773Z,72.10
2017-10-15T04:16:06.147Z,72.50
2017-10-15T04:18:35.019Z,72.70
2017-10-15T04:21:03.673Z,72.80
2017-10-15T04:23:32.430Z,72.80
2017-10-15T04:26:00.686Z,72.80
2017-10-15T04:28:29.504Z,73.00
2017-10-15T04:30:57.803Z,74.10
2017-10-15T04:33:26.066Z,73.40
2017-10-15T04:35:54.321Z,74.50
2017-10-15T04:38:22.614Z,74.80
2017-10-15T04:40:50.869Z,74.60
2017-10-15T04:43:19.156Z,74.80
2017-10-15T04:45:47.635Z,74.50
2017-10-15T04:48:15.943Z,74.60
2017-10-15T04:50:44.314Z,74.80
2017-10-15T04:53:12.569Z,75.70
2017-10-15T04:55:40.864Z,75.70
2017-10-15T04:58:09.102Z,76.40
2017-10-15T05:00:37.360Z,75.90
2017-10-15T05:03:05.634Z,75.50
2017-10-15T05:05:34.316Z,75.50
2017-10-15T05:08:02.985Z,75.50
2017-10-15T05:10:31.249Z,75.50
2017-10-15T05:12:59.828Z,75.00
2017-10-15T05:15:28.121Z,75.40
2017-10-15T05:17:56.376Z,75.20
2017-10-15T05:20:24.656Z,75.20
2017-10-15T05:22:52.922Z,75.00
2017-10-15T05:25:21.181Z,74.80
2017-10-15T05:27:49.430Z,75.20
2017-10-15T05:30:17.774Z,75.00
2017-10-15T05:32:46.037Z,75.40
2017-10-15T05:35:14.341Z,75.40
2017-10-15T05:37:42.614Z,75.70
2017-10-15T05:40:11.265Z,76.40
2017-10-15T05:42:39.529Z,76.40
2017-10-15T05:45:07.789Z,76.80
2017-10-15T05:47:36.103Z,77.00
2017-10-15T05:50:04.361Z,77.30
2017-10-15T05:52:32.633Z,76.80
2017-10-15T05:55:00.920Z,76.80
2017-10-15T05:57:29.174Z,77.00
2017-10-15T05:59:57.442Z,76.80
2017-10-15T06:02:25.699Z,77.00
2017-10-15T06:04:54.356Z,76.80
2017-10-15T06:07:22.605Z,76.80
2017-10-15T06:09:52.115Z,76.40
2017-10-15T06:12:20.391Z,76.40
2017-10-15T06:14:48.653Z,76.80
2017-10-15T06:17:16.907Z,76.40
2017-10-15T06:19:45.174Z,77.10
2017-10-15T06:22:13.672Z,77.10
2017-10-15T06:24:41.916Z,77.50
2017-10-15T06:27:10.469Z,77.00
2017-10-15T06:29:38.744Z,76.40
2017-10-15T06:32:07.003Z,76.60
2017-10-15T06:34:35.258Z,76.40
2017-10-15T06:37:03.545Z,76.60
2017-10-15T06:39:31.783Z,76.10
2017-10-15T06:42:00.262Z,75.70
2017-10-15T06:44:28.521Z,75.20
2017-10-15T06:46:57.185Z,74.80
2017-10-15T06:49:25.472Z,74.80
2017-10-15T06:51:53.725Z,74.50
2017-10-15T06:54:21.993Z,74.30
2017-10-15T06:56:50.340Z,74.10
2017-10-15T06:59:18.612Z,73.70
2017-10-15T07:01:47.000Z,73.70
2017-10-15T07:04:15.258Z,73.60
2017-10-15T07:06:43.912Z,73.20
2017-10-15T07:09:12.205Z,73.20
2017-10-15T07:11:40.786Z,73.00
2017-10-15T07:14:09.266Z,72.80
2017-10-15T07:16:37.528Z,72.80
2017-10-15T07:19:05.836Z,72.70
2017-10-15T07:21:34.113Z,72.50
2017-10-15T07:24:02.782Z,71.60
2017-10-15T07:26:31.460Z,70.50
2017-10-15T07:29:00.066Z,70.50
2017-10-15T07:31:28.733Z,69.60
2017-10-15T07:33:57.637Z,69.40
2017-10-15T07:36:25.892Z,69.20
2017-10-15T07:38:54.589Z,69.20
2017-10-15T07:41:23.389Z,67.60
2017-10-15T07:43:51.641Z,67.60
2017-10-15T07:46:19.950Z,67.40
2017-10-15T07:48:48.229Z,66.70
2017-10-15T07:51:16.500Z,67.80
2017-10-15T07:53:44.807Z,67.80
2017-10-15T07:56:13.120Z,67.80
2017-10-15T07:58:41.378Z,68.50
2017-10-15T08:01:09.648Z,68.70
2017-10-15T08:03:38.127Z,67.80
2017-10-15T08:06:06.388Z,67.30
2017-10-15T08:08:34.797Z,66.90
2017-10-15T08:11:03.040Z,65.70
2017-10-15T08:13:31.728Z,64.60
2017-10-15T08:16:00.017Z,61.90
2017-10-15T08:18:28.521Z,59.10
2017-10-15T08:20:56.802Z,57.70
2017-10-15T08:23:25.114Z,56.10
2017-10-15T08:25:53.551Z,55.10
2017-10-15T08:28:21.831Z,54.80
2017-10-15T08:30:50.129Z,54.20
2017-10-15T08:33:18.834Z,52.10
2017-10-15T08:35:47.088Z,52.10
2017-10-15T08:38:15.593Z,50.50
2017-10-15T08:40:43.863Z,47.50
2017-10-15T08:43:12.130Z,47.10
2017-10-15T08:45:40.789Z,45.50
2017-10-15T08:48:10.165Z,45.50
2017-10-15T08:50:38.470Z,44.30
2017-10-15T08:53:06.754Z,44.00
2017-10-15T08:55:36.069Z,44.70
2017-10-15T08:58:04.758Z,43.60
2017-10-15T09:00:33.043Z,43.60
2017-10-15T09:03:01.309Z,44.10
2017-10-15T09:05:29.960Z,47.00
2017-10-15T09:07:58.449Z,47.00
2017-10-15T09:10:26.761Z,47.00
2017-10-15T09:12:55.057Z,46.50
2017-10-15T09:15:23.531Z,45.30
2017-10-15T09:17:51.902Z,43.90
2017-10-15T09:20:20.169Z,44.60
2017-10-15T09:22:48.465Z,44.10
2017-10-15T09:25:16.719Z,44.30
2017-10-15T09:27:46.165Z,43.00
2017-10-15T09:30:14.473Z,43.00
2017-10-15T09:32:43.187Z,39.60
2017-10-15T09:35:11.458Z,39.70
2017-10-15T09:37:39.713Z,38.70
2017-10-15T09:40:08.383Z,37.20
2017-10-15T09:42:36.669Z,37.20
2017-10-15T09:45:04.917Z,37.60
2017-10-15T09:47:33.176Z,39.70
2017-10-15T09:50:01.443Z,39.60
2017-10-15T09:52:29.950Z,36.90
2017-10-15T09:54:58.220Z,35.70
2017-10-15T09:57:26.490Z,35.30
2017-10-15T09:59:54.825Z,36.00
2017-10-15T10:02:23.069Z,36.50
2017-10-15T10:04:51.315Z,38.10
2017-10-15T10:07:19.610Z,37.60
2017-10-15T10:09:47.871Z,35.40
2017-10-15T10:12:16.366Z,34.10
2017-10-15T10:14:44.641Z,34.10
2017-10-15T10:17:14.169Z,34.70
2017-10-15T10:19:42.432Z,35.90
2017-10-15T10:22:10.711Z,34.10
2017-10-15T10:24:38.996Z,34.20
2017-10-15T10:27:07.291Z,33.40
2017-10-15T10:29:35.533Z,32.30
2017-10-15T10:32:03.795Z,32.90
2017-10-15T10:34:32.099Z,34.40
2017-10-15T10:37:00.375Z,34.10
2017-10-15T10:39:28.638Z,32.00
2017-10-15T10:41:56.890Z,32.60
2017-10-15T10:44:25.143Z,33.50
2017-10-15T10:46:53.420Z,34.10
2017-10-15T10:49:22.072Z,33.40
2017-10-15T10:51:51.478Z,34.70
2017-10-15T10:54:19.719Z,34.70
2017-10-15T10:56:47.972Z,35.60
2017-10-15T10:59:17.434Z,38.20
2017-10-15T11:01:46.689Z,38.20
2017-10-15T11:04:14.946Z,40.50
2017-10-15T11:06:43.236Z,39.30
2017-10-15T11:09:12.294Z,38.50
2017-10-15T11:11:40.617Z,37.10
2017-10-15T11:14:09.016Z,36.30
2017-10-15T11:16:37.509Z,37.50
2017-10-15T11:19:05.812Z,37.60
2017-10-15T11:21:34.458Z,38.70
2017-10-15T11:24:02.705Z,38.70
2017-10-15T11:26:30.972Z,38.10
2017-10-15T11:28:59.224Z,36.30
2017-10-15T11:31:27.908Z,36.80
2017-10-15T11:33:57.136Z,36.80
2017-10-15T11:36:25.419Z,36.60
2017-10-15T11:38:53.695Z,37.20
2017-10-15T11:41:22.427Z,38.80
2017-10-15T11:43:51.046Z,38.80
2017-10-15T11:46:19.702Z,40.20
2017-10-15T11:48:48.366Z,40.00
2017-10-15T11:51:16.670Z,40.00
2017-10-15T11:53:45.353Z,37.60
2017-10-15T11:56:14.016Z,37.20
2017-10-15T11:58:42.305Z,37.20
2017-10-15T12:01:10.571Z,35.60
2017-10-15T12:03:38.824Z,35.60
2017-10-15T12:06:07.091Z,33.70
2017-10-15T12:08:35.351Z,33.80
2017-10-15T12:11:03.609Z,34.80
2017-10-15T12:13:31.877Z,35.60
2017-10-15T12:16:00.531Z,34.10
2017-10-15T12:18:28.778Z,34.10
2017-10-15T12:20:57.057Z,35.00
2017-10-15T12:23:25.316Z,35.30
2017-10-15T12:25:53.844Z,34.80
2017-10-15T12:28:22.120Z,35.30
2017-10-15T12:30:50.372Z,36.50
2017-10-15T12:33:18.892Z,38.10
2017-10-15T12:35:47.166Z,38.70
2017-10-15T12:38:15.423Z,38.10
2017-10-15T12:40:43.726Z,37.90
2017-10-15T12:43:11.969Z,36.90
2017-10-15T12:45:40.285Z,36.30
2017-10-15T12:48:08.653Z,35.00
2017-10-15T12:50:36.988Z,36.20
2017-10-15T12:53:05.415Z,36.90
2017-10-15T12:55:33.715Z,36.30
2017-10-15T12:58:02.406Z,36.30
2017-10-15T13:00:30.736Z,36.20
2017-10-15T13:02:59.124Z,36.90
2017-10-15T13:05:27.478Z,38.70
2017-10-15T13:07:55.889Z,37.50
2017-10-15T13:10:24.750Z,35.40
2017-10-15T13:12:53.084Z,35.40
2017-10-15T13:15:21.392Z,35.60
2017-10-15T13:17:49.748Z,36.50
2017-10-15T13:20:18.092Z,37.20
2017-10-15T13:22:46.488Z,37.40
2017-10-15T13:25:14.797Z,37.50
2017-10-15T13:27:43.158Z,37.60
2017-10-15T13:30:11.491Z,38.70
2017-10-15T13:32:39.850Z,37.20
2017-10-15T13:35:08.176Z,37.20
2017-10-15T13:37:36.557Z,37.50
2017-10-15T13:40:04.934Z,36.90
2017-10-15T13:42:33.309Z,45.30
2017-10-15T13:45:01.665Z,52.00
2017-10-15T13:47:30.630Z,58.00
2017-10-15T13:49:58.909Z,58.00
2017-10-15T13:52:27.142Z,58.90
2017-10-15T13:54:55.409Z,57.60
2017-10-15T13:57:23.657Z,57.40
2017-10-15T13:59:51.913Z,59.20
2017-10-15T14:02:20.168Z,58.50
2017-10-15T14:04:48.413Z,58.50
2017-10-15T14:07:16.717Z,57.70
2017-10-15T14:09:45.029Z,55.40
2017-10-15T14:12:13.311Z,56.10
2017-10-15T14:14:41.989Z,55.10
2017-10-15T14:17:10.289Z,55.10
2017-10-15T14:19:38.732Z,55.70
2017-10-15T14:22:07.026Z,55.40
2017-10-15T14:24:35.274Z,56.60
2017-10-15T14:27:03.540Z,56.70
2017-10-15T14:29:31.808Z,57.60
2017-10-15T14:32:00.116Z,55.50
2017-10-15T14:34:28.369Z,56.60
2017-10-15T14:36:56.644Z,56.10
2017-10-15T14:39:24.949Z,57.20
2017-10-15T14:41:53.184Z,58.00
2017-10-15T14:44:21.441Z,58.00
2017-10-15T14:46:50.116Z,59.20
2017-10-15T14:49:18.372Z,59.20
2017-10-15T14:51:47.050Z,59.10
2017-10-15T14:54:15.740Z,59.10
2017-10-15T14:56:43.995Z,59.40
2017-10-15T14:59:12.302Z,60.60
2017-10-15T15:01:40.586Z,60.60
2017-10-15T15:04:09.227Z,61.20
2017-10-15T15:06:37.521Z,61.20
2017-10-15T15:09:05.822Z,61.30
2017-10-15T15:11:34.113Z,59.20
2017-10-15T15:14:02.345Z,60.80
2017-10-15T15:16:30.588Z,60.00
2017-10-15T15:18:59.018Z,60.80
2017-10-15T15:21:27.269Z,62.10
2017-10-15T15:23:55.552Z,62.80
2017-10-15T15:26:24.339Z,62.20
2017-10-15T15:28:52.604Z,61.50
2017-10-15T15:31:20.879Z,62.60
2017-10-15T15:33:49.205Z,62.10
2017-10-15T15:36:17.854Z,64.60
2017-10-15T15:38:46.118Z,64.60
2017-10-15T15:41:14.357Z,64.60
2017-10-15T15:43:42.653Z,64.20
2017-10-15T15:46:10.900Z,64.00
2017-10-15T15:48:39.233Z,64.20
2017-10-15T15:51:07.525Z,64.40
2017-10-15T15:53:35.883Z,64.80
2017-10-15T15:56:04.137Z,65.30
2017-10-15T15:58:33.229Z,66.40
2017-10-15T16:01:01.493Z,67.60
2017-10-15T16:03:29.751Z,69.10
2017-10-15T16:05:58.048Z,70.30
2017-10-15T16:08:26.545Z,70.30
2017-10-15T16:10:54.854Z,71.20
2017-10-15T16:13:23.438Z,71.60
2017-10-15T16:15:51.728Z,71.90
2017-10-15T16:18:20.384Z,72.50
2017-10-15T16:20:48.684Z,72.50
2017-10-15T16:23:16.969Z,72.70
2017-10-15T16:25:46.340Z,73.70
2017-10-15T16:28:15.907Z,73.70
2017-10-15T16:30:44.159Z,73.70
2017-10-15T16:33:12.820Z,73.90
2017-10-15T16:35:41.085Z,73.90
2017-10-15T16:38:09.363Z,73.70
2017-10-15T16:40:37.694Z,73.60
2017-10-15T16:43:06.158Z,73.40
2017-10-15T16:45:34.493Z,74.10
2017-10-15T16:48:02.768Z,74.30
2017-10-15T16:50:31.044Z,74.50
2017-10-15T16:52:59.308Z,74.10
2017-10-15T16:55:33.285Z,73.00
2017-10-15T16:58:01.587Z,71.80
2017-10-15T17:00:29.855Z,70.70
2017-10-15T17:02:58.110Z,69.20
2017-10-15T17:05:26.400Z,68.70
2017-10-15T17:07:54.701Z,68.50
2017-10-15T17:10:22.965Z,68.30
2017-10-15T17:12:53.638Z,68.20
2017-10-15T17:15:22.773Z,67.80
2017-10-15T17:17:51.028Z,67.60
2017-10-15T17:20:20.010Z,68.00
2017-10-15T17:22:48.286Z,68.00
2017-10-15T17:25:16.929Z,67.40
2017-10-15T17:27:45.192Z,67.60
2017-10-15T17:30:13.501Z,66.90
2017-10-15T17:32:41.783Z,66.90
2017-10-15T17:35:10.068Z,66.90
2017-10-15T17:37:38.338Z,67.60
2017-10-15T17:40:06.666Z,67.60
2017-10-15T17:42:34.920Z,67.80
2017-10-15T17:45:03.248Z,67.80
2017-10-15T17:47:31.513Z,67.30
2017-10-15T17:49:59.813Z,67.30
2017-10-15T17:52:28.064Z,67.10
2017-10-15T17:54:56.370Z,67.60
2017-10-15T17:57:24.629Z,67.40
2017-10-15T17:59:52.887Z,67.30
2017-10-15T18:02:27.628Z,66.60
2017-10-15T18:04:56.878Z,66.60
2017-10-15T18:10:36.304Z,67.80
2017-10-15T18:13:04.632Z,68.20
2017-10-15T18:15:33.349Z,69.20
2017-10-15T18:18:01.638Z,69.20
2017-10-15T18:20:29.893Z,68.90
2017-10-15T18:22:58.174Z,68.90
2017-10-15T18:25:26.523Z,69.20
2017-10-15T18:27:54.800Z,70.90
2017-10-15T18:30:23.096Z,72.80
2017-10-15T18:32:51.440Z,75.00
2017-10-15T18:35:19.730Z,75.70
2017-10-15T18:37:48.012Z,74.60
2017-10-15T18:40:16.270Z,73.90
2017-10-15T18:42:44.548Z,73.70
2017-10-15T18:45:12.811Z,73.60
2017-10-15T18:47:41.078Z,72.80
2017-10-15T18:50:09.377Z,72.80
2017-10-15T18:52:37.670Z,73.40
2017-10-15T18:55:05.941Z,73.60
2017-10-15T18:57:34.687Z,73.70
2017-10-15T19:00:02.959Z,73.70
2017-10-15T19:02:31.208Z,73.20
2017-10-15T19:04:59.581Z,73.00
2017-10-15T19:07:27.897Z,72.80
2017-10-15T19:09:56.158Z,73.20
2017-10-15T19:12:24.451Z,73.70
2017-10-15T19:14:52.712Z,74.10
2017-10-15T19:17:20.970Z,73.90
2017-10-15T19:19:49.572Z,74.30
2017-10-15T19:22:17.828Z,75.40
2017-10-15T19:24:46.070Z,74.60
2017-10-15T19:27:14.316Z,74.80
2017-10-15T19:29:42.996Z,75.40
2017-10-15T19:32:11.306Z,75.40
2017-10-15T19:34:39.569Z,75.00
2017-10-15T19:37:07.865Z,76.60
2017-10-15T19:39:36.121Z,76.10
2017-10-15T19:42:04.456Z,74.50
2017-10-15T19:44:33.379Z,74.10
2017-10-15T19:47:02.371Z,73.90
2017-10-15T19:49:31.047Z,73.70
2017-10-15T19:51:59.330Z,73.70
2017-10-15T19:54:27.618Z,73.90
2017-10-15T19:56:56.734Z,73.20
2017-10-15T19:59:28.744Z,73.40
2017-10-15T20:01:57.317Z,73.40
2017-10-15T20:04:25.592Z,73.90
2017-10-15T20:06:54.003Z,73.60
2017-10-15T20:09:22.987Z,73.40
2017-10-15T20:11:51.253Z,73.40
2017-10-15T20:14:19.522Z,72.70
2017-10-15T20:19:28.877Z,74.50
2017-10-15T20:21:57.577Z,74.60
2017-10-15T20:24:26.248Z,75.40
2017-10-15T20:26:55.532Z,75.40
2017-10-15T20:29:23.842Z,75.00
2017-10-15T20:31:52.112Z,75.40
2017-10-15T20:34:20.824Z,75.00
2017-10-15T20:36:49.516Z,73.40
2017-10-15T20:39:17.971Z,73.40
2017-10-15T20:41:46.559Z,73.60
2017-10-15T20:44:15.290Z,74.60
2017-10-15T20:46:43.648Z,74.60
2017-10-15T20:49:11.984Z,73.60
2017-10-15T20:51:40.311Z,72.80
2017-10-15T20:54:08.588Z,72.70
2017-10-15T20:56:36.904Z,70.70
2017-10-15T20:59:05.173Z,72.30
2017-10-15T21:01:33.429Z,70.30
2017-10-15T21:04:01.712Z,71.80
2017-10-15T21:06:29.994Z,71.60
2017-10-15T21:08:58.256Z,71.80
2017-10-15T21:11:26.553Z,71.00
2017-10-15T21:13:55.963Z,71.00
2017-10-15T21:16:24.339Z,72.80
2017-10-15T21:18:52.674Z,71.60
2017-10-15T21:21:21.095Z,69.80
2017-10-15T21:23:49.501Z,71.60
2017-10-15T21:26:18.328Z,71.20
2017-10-15T21:28:47.061Z,71.40
2017-10-15T21:31:15.394Z,71.40
2017-10-15T21:33:43.778Z,72.80
2017-10-15T21:36:12.053Z,72.80
2017-10-15T21:38:41.124Z,72.50
2017-10-15T21:41:09.397Z,72.10
2017-10-15T21:43:37.681Z,72.30
2017-10-15T21:46:06.221Z,72.50
2017-10-15T21:48:34.724Z,73.40
2017-10-15T21:51:03.054Z,73.40
2017-10-15T21:53:32.034Z,73.20
2017-10-15T21:56:00.287Z,73.70
2017-10-15T21:58:28.550Z,73.40
2017-10-15T22:00:57.958Z,75.20
2017-10-15T22:03:26.411Z,75.20
2017-10-15T22:05:55.085Z,74.60
2017-10-15T22:08:23.875Z,76.30
2017-10-15T22:10:52.130Z,76.30
2017-10-15T22:13:20.397Z,77.30
2017-10-15T22:15:48.929Z,77.10
2017-10-15T22:18:22.879Z,75.70
2017-10-15T22:20:56.793Z,75.00
2017-10-15T22:23:25.074Z,74.80
2017-10-15T22:25:53.389Z,75.00
2017-10-15T22:28:21.794Z,74.30
2017-10-15T22:30:50.060Z,74.50
2017-10-15T22:33:18.343Z,75.70
2017-10-15T22:35:47.201Z,75.40
2017-10-15T22:38:15.547Z,75.40
2017-10-15T22:40:44.060Z,75.20
2017-10-15T22:43:12.531Z,74.80
2017-10-15T22:45:40.923Z,74.50
2017-10-15T22:48:09.310Z,74.80
2017-10-15T22:50:38.182Z,74.60
2017-10-15T22:53:06.481Z,74.10
2017-10-15T22:55:35.146Z,72.70
2017-10-15T22:58:03.470Z,72.70
2017-10-15T23:00:31.767Z,72.70
2017-10-15T23:03:00.389Z,73.00
2017-10-15T23:05:28.695Z,72.50
2017-10-15T23:07:57.363Z,72.10
2017-10-15T23:10:26.168Z,72.50
2017-10-15T23:12:54.866Z,73.40
2017-10-15T23:15:23.147Z,73.40
2017-10-15T23:17:51.444Z,72.80
2017-10-15T23:20:19.749Z,72.70
2017-10-15T23:22:48.038Z,73.70
2017-10-15T23:25:16.300Z,72.50
2017-10-15T23:27:44.601Z,71.80
2017-10-15T23:30:13.294Z,71.20
2017-10-15T23:32:41.557Z,71.20
2017-10-15T23:35:09.932Z,71.40
2017-10-15T23:37:38.597Z,71.90
2017-10-15T23:40:06.855Z,71.90
2017-10-15T23:42:35.148Z,72.50
2017-10-15T23:45:03.391Z,71.80
2017-10-15T23:47:31.680Z,71.80
2017-10-15T23:49:59.968Z,71.90
2017-10-15T23:52:28.254Z,71.80
2017-10-15T23:54:56.934Z,70.50
2017-10-15T23:57:25.189Z,70.50
2017-10-15T23:59:53.481Z,70.10
